Time;durP1;ratioP1;P1;durP2;ratioP2;P2;SDS_P1;SDS_P2;PMS_P1;PMS_P2;Temp;Humidity;BMP_temperature;BMP_pressure;BME280_temperature;BME280_humidity;BME280_pressure;Samples;Min_cycle;Max_cycle;Signal;HPM_P1;HPM_P2
2023/03/13 00:02:00;;;;;;;9.75;5.63;;;5.30;80.90;;;;;;4998629;28;20053;-65
2023/03/13 00:04:26;;;;;;;8.10;5.63;;;5.40;80.90;;;;;;5004790;28;20112;-71
2023/03/13 00:06:51;;;;;;;7.03;5.10;;;5.50;80.40;;;;;;5010610;28;20044;-71
2023/03/13 00:09:17;;;;;;;7.55;5.07;;;5.40;80.10;;;;;;5010702;28;20481;-71
2023/03/13 00:11:44;;;;;;;12.50;5.35;;;5.40;80.50;;;;;;5006298;28;20038;-71
2023/03/13 00:14:11;;;;;;;10.18;6.00;;;5.30;80.70;;;;;;4997123;28;20092;-71
2023/03/13 00:16:38;;;;;;;8.68;5.55;;;5.30;81.10;;;;;;5003746;28;20076;-71
2023/03/13 00:19:05;;;;;;;8.13;5.90;;;5.20;80.30;;;;;;5009323;28;20132;-71
2023/03/13 00:21:31;;;;;;;7.57;5.25;;;5.20;81.30;;;;;;5004724;28;20045;-72
2023/03/13 00:23:58;;;;;;;7.95;4.50;;;5.30;82.30;;;;;;5007181;28;20629;-72
2023/03/13 00:26:26;;;;;;;8.95;5.13;;;5.30;83.70;;;;;;5005358;28;20038;-71
2023/03/13 00:28:52;;;;;;;8.70;5.10;;;5.30;85.10;;;;;;4983352;28;20034;-71
2023/03/13 00:31:24;;;;;;;10.13;6.10;;;5.30;86.90;;;;;;4997044;28;20486;-71
2023/03/13 00:33:53;;;;;;;8.55;6.10;;;5.30;88.70;;;;;;5000460;28;20699;-71
2023/03/13 00:36:24;;;;;;;7.88;5.63;;;5.20;90.20;;;;;;5004676;28;20033;-71
2023/03/13 00:38:51;;;;;;;10.37;6.20;;;5.20;90.40;;;;;;5001437;28;20030;-71
2023/03/13 00:41:22;;;;;;;9.55;6.00;;;5.10;90.80;;;;;;4999399;28;20038;-71
2023/03/13 00:43:49;;;;;;;7.28;5.60;;;5.10;91.00;;;;;;4989517;28;20053;-71
2023/03/13 00:46:19;;;;;;;7.78;5.10;;;5.00;91.30;;;;;;4997494;28;20112;-71
2023/03/13 00:48:45;;;;;;;9.40;5.25;;;5.00;92.10;;;;;;4995775;28;20029;-71
2023/03/13 00:51:11;;;;;;;7.70;5.32;;;5.00;92.90;;;;;;4989919;28;20056;-71
2023/03/13 00:53:36;;;;;;;8.00;5.18;;;5.10;93.70;;;;;;4989144;28;20026;-71
2023/03/13 00:56:11;;;;;;;6.78;4.60;;;5.10;95.20;;;;;;4984586;28;20407;-71
2023/03/13 00:58:39;;;;;;;6.25;4.30;;;5.10;96.70;;;;;;4990374;28;20038;-74
2023/03/13 01:01:26;;;;;;;6.97;4.20;;;5.10;98.50;;;;;;4972040;28;20635;-70
2023/03/13 01:03:54;;;;;;;5.65;3.80;;;5.30;99.90;;;;;;4997303;28;20046;-72
2023/03/13 01:06:22;;;;;;;5.97;4.00;;;5.40;99.90;;;;;;4995731;28;20048;-73
2023/03/13 01:08:48;;;;;;;6.40;3.80;;;5.50;99.90;;;;;;4996037;28;20044;-73
2023/03/13 01:11:17;;;;;;;6.50;3.45;;;5.60;99.90;;;;;;4994578;28;20186;-72
2023/03/13 01:13:43;;;;;;;5.95;3.63;;;5.70;99.90;;;;;;4994326;28;20201;-73
2023/03/13 01:16:12;;;;;;;4.97;3.10;;;5.70;99.90;;;;;;4988100;28;20042;-63
2023/03/13 01:18:40;;;;;;;5.18;3.58;;;5.80;99.90;;;;;;4994209;28;20038;-63
2023/03/13 01:21:06;;;;;;;6.28;3.50;;;5.80;99.90;;;;;;4993242;28;20037;-62
2023/03/13 01:23:32;;;;;;;5.63;3.78;;;5.90;99.90;;;;;;4991784;28;20062;-63
2023/03/13 01:25:58;;;;;;;5.03;3.97;;;6.00;99.90;;;;;;4993985;28;20092;-63
2023/03/13 01:28:24;;;;;;;9.73;4.80;;;6.10;99.90;;;;;;4995688;28;20406;-63
2023/03/13 01:30:53;;;;;;;7.95;5.53;;;6.40;99.90;;;;;;4992392;28;20133;-63
2023/03/13 01:33:18;;;;;;;7.45;5.80;;;6.40;98.80;;;;;;4990470;28;20042;-63
2023/03/13 01:35:44;;;;;;;8.10;5.75;;;6.40;97.40;;;;;;4985031;28;20042;-62
2023/03/13 01:38:10;;;;;;;10.77;5.78;;;6.30;97.30;;;;;;4989596;28;20169;-63
2023/03/13 01:40:42;;;;;;;6.80;5.13;;;6.30;97.30;;;;;;4991192;28;20201;-63
2023/03/13 01:43:26;;;;;;;8.48;5.78;;;6.40;97.50;;;;;;4990589;28;20115;-63
2023/03/13 01:46:04;;;;;;;11.43;7.32;;;6.40;96.50;;;;;;4997095;28;20046;-63
2023/03/13 01:48:42;;;;;;;9.32;5.60;;;6.40;96.40;;;;;;4991668;28;20601;-62
2023/03/13 01:51:13;;;;;;;7.05;5.28;;;6.40;96.20;;;;;;4992436;28;20057;-63
2023/03/13 01:53:43;;;;;;;9.13;5.63;;;6.40;95.70;;;;;;4994320;28;20450;-63
2023/03/13 01:56:14;;;;;;;12.23;6.70;;;6.50;95.50;;;;;;4993906;28;20068;-62
2023/03/13 01:58:40;;;;;;;8.93;6.13;;;6.40;95.10;;;;;;4991365;28;20379;-63
2023/03/13 02:01:06;;;;;;;10.77;6.60;;;6.20;95.10;;;;;;4987042;28;20044;-63
2023/03/13 02:03:33;;;;;;;12.40;6.72;;;6.10;95.20;;;;;;4993925;28;20139;-63
2023/03/13 02:06:00;;;;;;;8.52;6.47;;;6.00;95.60;;;;;;4996998;28;20129;-62
2023/03/13 02:09:07;;;;;;;7.65;5.57;;;6.00;96.00;;;;;;4986252;28;20033;-63
2023/03/13 02:12:06;;;;;;;9.48;6.10;;;6.10;95.80;;;;;;4992224;28;20525;-63
2023/03/13 02:14:34;;;;;;;10.45;5.55;;;6.10;96.00;;;;;;4982072;28;20054;-74
2023/03/13 02:17:00;;;;;;;9.75;5.70;;;6.20;95.70;;;;;;4995916;28;20034;-73
2023/03/13 02:19:44;;;;;;;10.95;6.07;;;6.10;95.60;;;;;;4995752;28;20045;-73
2023/03/13 02:22:19;;;;;;;8.05;5.50;;;6.10;95.60;;;;;;4993440;28;20065;-72
2023/03/13 02:24:53;;;;;;;10.25;6.22;;;6.10;95.80;;;;;;4993297;28;20050;-73
2023/03/13 02:27:19;;;;;;;8.10;5.30;;;6.10;95.80;;;;;;4994692;28;20048;-73
2023/03/13 02:29:45;;;;;;;10.25;5.78;;;6.10;95.80;;;;;;4997878;28;20046;-73
2023/03/13 02:32:11;;;;;;;10.55;6.32;;;6.30;95.70;;;;;;4990014;28;20038;-73
2023/03/13 02:34:39;;;;;;;10.25;6.68;;;6.30;95.40;;;;;;4987304;28;20645;-73
2023/03/13 02:37:09;;;;;;;11.15;6.70;;;6.40;95.00;;;;;;4992819;28;20549;-73
2023/03/13 02:39:37;;;;;;;13.20;7.38;;;6.50;94.60;;;;;;4987527;28;20437;-73
2023/03/13 02:42:03;;;;;;;8.10;5.90;;;6.60;94.30;;;;;;4981532;28;20536;-73
2023/03/13 02:44:29;;;;;;;10.43;6.85;;;6.60;94.10;;;;;;4990687;28;20046;-72
2023/03/13 02:46:55;;;;;;;8.75;6.13;;;6.60;94.00;;;;;;4995723;28;20046;-73
2023/03/13 02:49:26;;;;;;;8.10;6.35;;;6.60;93.80;;;;;;4995583;28;20088;-72
2023/03/13 02:51:54;;;;;;;10.73;6.00;;;6.60;93.90;;;;;;4992213;28;20042;-73
2023/03/13 02:54:32;;;;;;;8.98;6.47;;;6.50;94.00;;;;;;4995032;28;20034;-72
2023/03/13 02:57:02;;;;;;;8.52;5.93;;;6.50;94.00;;;;;;4990670;28;20107;-73
2023/03/13 02:59:27;;;;;;;9.35;6.22;;;6.50;93.80;;;;;;4993371;28;20167;-73
2023/03/13 03:01:53;;;;;;;9.82;6.25;;;6.60;93.60;;;;;;4996199;28;20463;-72
2023/03/13 03:04:24;;;;;;;11.82;6.65;;;6.70;93.50;;;;;;4992600;28;20783;-73
2023/03/13 03:06:50;;;;;;;9.52;6.18;;;6.60;93.50;;;;;;4990739;28;20449;-73
2023/03/13 03:09:17;;;;;;;11.00;6.07;;;6.50;93.80;;;;;;4994283;28;20038;-73
2023/03/13 03:11:43;;;;;;;10.13;6.47;;;6.40;94.00;;;;;;4995191;28;20624;-73
2023/03/13 03:14:09;;;;;;;11.43;6.22;;;6.40;94.00;;;;;;4976734;28;20118;-73
2023/03/13 03:16:35;;;;;;;9.93;6.38;;;6.30;94.30;;;;;;4995564;28;20156;-73
2023/03/13 03:19:01;;;;;;;9.05;5.97;;;6.20;94.60;;;;;;4995415;28;20037;-72
2023/03/13 03:21:27;;;;;;;7.10;5.28;;;6.30;94.70;;;;;;4997168;28;20104;-73
2023/03/13 03:23:52;;;;;;;8.23;5.53;;;6.20;94.60;;;;;;4992465;28;20038;-73
2023/03/13 03:26:18;;;;;;;8.85;5.78;;;6.30;94.70;;;;;;4993037;28;20033;-62
2023/03/13 03:28:44;;;;;;;8.52;6.15;;;6.30;94.70;;;;;;4989681;28;20558;-62
2023/03/13 03:31:13;;;;;;;9.45;6.38;;;6.30;94.90;;;;;;4994440;28;20169;-62
2023/03/13 03:33:39;;;;;;;9.00;6.07;;;6.30;95.00;;;;;;4993402;28;20034;-62
2023/03/13 03:36:12;;;;;;;11.05;5.93;;;6.30;95.00;;;;;;4994426;28;20026;-62
2023/03/13 03:38:39;;;;;;;9.77;5.93;;;6.30;95.10;;;;;;4996768;28;20042;-63
2023/03/13 03:41:08;;;;;;;9.32;5.97;;;6.30;95.00;;;;;;4995939;28;20038;-62
2023/03/13 03:43:35;;;;;;;9.00;5.82;;;6.40;95.00;;;;;;4998795;28;20088;-62
2023/03/13 03:46:01;;;;;;;9.77;5.60;;;6.30;95.00;;;;;;4999819;28;20144;-62
2023/03/13 03:48:27;;;;;;;7.07;5.00;;;6.30;95.20;;;;;;4995106;28;20042;-62
2023/03/13 03:50:52;;;;;;;7.63;4.80;;;6.40;95.30;;;;;;4995708;28;20037;-62
2023/03/13 03:53:18;;;;;;;8.27;5.85;;;6.30;95.20;;;;;;4996808;28;20551;-62
2023/03/13 03:55:44;;;;;;;7.25;4.60;;;6.40;95.20;;;;;;4995787;28;21088;-62
2023/03/13 03:58:10;;;;;;;8.10;5.18;;;6.40;95.20;;;;;;4999619;28;20493;-62
2023/03/13 04:00:35;;;;;;;7.65;5.10;;;6.40;95.20;;;;;;4995348;28;20061;-62
2023/03/13 04:03:01;;;;;;;9.38;5.50;;;6.40;95.30;;;;;;5000642;28;20561;-62
2023/03/13 04:05:27;;;;;;;7.30;4.93;;;6.30;95.50;;;;;;5000695;28;20044;-62
2023/03/13 04:07:53;;;;;;;6.65;4.65;;;6.30;95.60;;;;;;4993517;28;20025;-62
2023/03/13 04:10:19;;;;;;;8.88;4.90;;;6.20;95.80;;;;;;4997026;28;20046;-62
2023/03/13 04:12:44;;;;;;;6.72;5.05;;;6.20;95.90;;;;;;4998928;28;20038;-62
2023/03/13 04:15:10;;;;;;;7.57;5.45;;;6.20;95.60;;;;;;4998063;28;20567;-62
2023/03/13 04:17:36;;;;;;;9.25;6.13;;;6.30;95.80;;;;;;5001497;28;20065;-63
2023/03/13 04:20:03;;;;;;;12.95;6.68;;;6.30;95.70;;;;;;4998186;28;20050;-62
2023/03/13 04:22:29;;;;;;;9.20;7.43;;;6.30;95.70;;;;;;4996481;28;20778;-62
2023/03/13 04:24:55;;;;;;;10.07;7.68;;;6.30;95.80;;;;;;4998694;28;20133;-62
2023/03/13 04:27:21;;;;;;;11.20;7.82;;;6.30;95.70;;;;;;4998339;28;20115;-62
2023/03/13 04:29:47;;;;;;;11.50;7.53;;;6.30;95.70;;;;;;4989514;28;20034;-62
2023/03/13 04:32:12;;;;;;;6.97;5.80;;;6.40;95.90;;;;;;4993410;28;20061;-62
2023/03/13 04:34:38;;;;;;;8.82;6.45;;;6.40;96.10;;;;;;4991262;28;20037;-62
2023/03/13 04:37:04;;;;;;;8.80;6.18;;;6.40;96.00;;;;;;4997431;28;20505;-62
2023/03/13 04:39:30;;;;;;;8.23;5.18;;;6.50;96.00;;;;;;4989694;28;20773;-62
2023/03/13 04:41:55;;;;;;;8.20;5.93;;;6.50;95.90;;;;;;4996433;28;20042;-73
2023/03/13 04:44:22;;;;;;;8.25;5.13;;;6.60;95.70;;;;;;5001981;28;20050;-73
2023/03/13 04:46:48;;;;;;;8.35;5.78;;;6.60;95.60;;;;;;4999412;28;20065;-73
2023/03/13 04:49:15;;;;;;;8.95;5.55;;;6.60;95.70;;;;;;4997280;28;20132;-72
2023/03/13 04:51:42;;;;;;;6.78;4.80;;;6.70;95.80;;;;;;5000113;28;20034;-72
2023/03/13 04:54:08;;;;;;;8.75;5.80;;;6.70;95.80;;;;;;4989453;28;20111;-72
2023/03/13 04:56:34;;;;;;;10.25;6.93;;;6.80;95.80;;;;;;4997368;28;20475;-72
2023/03/13 04:59:00;;;;;;;12.63;8.18;;;6.70;96.00;;;;;;4995825;28;20156;-72
2023/03/13 05:01:25;;;;;;;11.43;7.07;;;6.60;96.10;;;;;;4999834;28;20033;-71
2023/03/13 05:03:51;;;;;;;11.85;6.70;;;6.60;96.20;;;;;;4996024;28;20049;-71
2023/03/13 05:06:17;;;;;;;12.35;7.55;;;6.70;96.30;;;;;;4996025;28;20092;-71
2023/03/13 05:08:42;;;;;;;9.25;6.20;;;6.70;96.40;;;;;;4996552;28;20641;-71
2023/03/13 05:11:09;;;;;;;8.88;5.32;;;6.70;96.20;;;;;;4995513;28;20048;-71
2023/03/13 05:13:34;;;;;;;6.72;4.93;;;6.80;96.30;;;;;;5000529;28;20159;-71
2023/03/13 05:16:00;;;;;;;7.72;5.07;;;6.80;96.20;;;;;;5002715;28;20045;-71
2023/03/13 05:18:26;;;;;;;10.60;6.07;;;6.80;96.20;;;;;;4984555;28;20095;-71
2023/03/13 05:20:51;;;;;;;15.38;7.93;;;6.80;96.50;;;;;;4993885;28;20038;-71
2023/03/13 05:23:17;;;;;;;11.52;6.65;;;6.80;96.10;;;;;;4997127;28;20706;-73
2023/03/13 05:25:42;;;;;;;9.85;6.35;;;6.80;96.10;;;;;;4995414;28;20053;-72
2023/03/13 05:28:08;;;;;;;9.55;5.93;;;6.80;96.20;;;;;;4996531;28;20464;-74
2023/03/13 05:30:34;;;;;;;8.45;5.18;;;6.90;96.10;;;;;;4997599;28;20044;-74
2023/03/13 05:33:00;;;;;;;7.88;5.40;;;6.90;96.20;;;;;;4999517;28;20038;-72
2023/03/13 05:35:25;;;;;;;7.75;5.40;;;6.80;96.10;;;;;;4992227;28;20119;-72
2023/03/13 05:37:51;;;;;;;7.38;4.70;;;6.90;96.20;;;;;;4996789;28;20568;-74
2023/03/13 05:40:17;;;;;;;12.57;7.28;;;6.90;96.10;;;;;;4995652;28;20136;-71
2023/03/13 05:42:43;;;;;;;14.18;7.70;;;6.90;95.90;;;;;;4992811;28;20173;-71
2023/03/13 05:45:10;;;;;;;13.57;7.88;;;6.90;95.90;;;;;;4997186;28;20042;-70
2023/03/13 05:47:37;;;;;;;9.73;7.15;;;6.90;96.20;;;;;;4997948;28;20045;-73
2023/03/13 05:50:04;;;;;;;8.27;6.03;;;6.80;96.30;;;;;;5011934;28;20116;-72
2023/03/13 05:52:30;;;;;;;7.25;5.75;;;6.80;96.30;;;;;;4998344;28;20045;-73
2023/03/13 05:54:55;;;;;;;7.97;5.10;;;6.80;96.40;;;;;;4987794;28;20030;-71
2023/03/13 05:57:21;;;;;;;10.00;5.93;;;6.80;96.60;;;;;;4989764;28;20048;-72
2023/03/13 05:59:47;;;;;;;10.68;6.28;;;6.90;96.50;;;;;;4992320;28;20076;-71
2023/03/13 06:02:12;;;;;;;10.18;6.07;;;6.90;96.50;;;;;;4993784;28;20052;-69
2023/03/13 06:04:38;;;;;;;18.45;9.10;;;6.90;96.40;;;;;;4995568;28;20144;-71
2023/03/13 06:07:04;;;;;;;16.52;9.63;;;6.90;96.90;;;;;;4997373;28;20140;-70
2023/03/13 06:09:30;;;;;;;11.07;7.18;;;6.90;96.70;;;;;;4997066;28;20117;-70
2023/03/13 06:11:55;;;;;;;10.30;5.68;;;6.90;97.00;;;;;;4995957;28;20033;-70
2023/03/13 06:14:21;;;;;;;6.72;4.95;;;6.90;97.30;;;;;;4991880;28;20680;-71
2023/03/13 06:16:47;;;;;;;7.38;5.10;;;6.90;97.10;;;;;;4990685;28;20117;-70
2023/03/13 06:19:12;;;;;;;7.72;5.95;;;6.80;97.30;;;;;;4991555;28;20038;-72
2023/03/13 06:21:38;;;;;;;6.85;4.85;;;6.70;97.30;;;;;;4984493;28;20457;-61
2023/03/13 06:24:04;;;;;;;6.32;4.68;;;6.60;97.60;;;;;;4989331;28;20919;-61
2023/03/13 06:26:30;;;;;;;9.60;4.78;;;6.60;98.20;;;;;;4994268;28;20154;-61
2023/03/13 06:28:56;;;;;;;5.47;4.88;;;6.60;99.00;;;;;;4993003;28;20044;-61
2023/03/13 06:31:22;;;;;;;7.00;4.35;;;6.60;99.00;;;;;;4988443;28;20438;-61
2023/03/13 06:33:47;;;;;;;8.32;5.07;;;6.50;99.60;;;;;;4978260;28;20034;-61
2023/03/13 06:36:14;;;;;;;6.38;4.25;;;6.50;99.40;;;;;;4989019;28;20058;-61
2023/03/13 06:38:40;;;;;;;7.55;4.75;;;6.50;99.70;;;;;;4980819;28;20053;-71
2023/03/13 06:41:05;;;;;;;8.25;5.40;;;6.50;99.90;;;;;;4977396;28;20038;-72
2023/03/13 06:43:31;;;;;;;11.60;5.72;;;6.50;99.90;;;;;;4981174;28;20077;-71
2023/03/13 06:46:03;;;;;;;9.75;5.03;;;6.60;99.90;;;;;;4994834;28;21057;-70
2023/03/13 06:48:28;;;;;;;8.25;4.43;;;6.60;99.90;;;;;;4990907;28;20042;-70
2023/03/13 06:50:55;;;;;;;5.68;4.18;;;6.60;99.80;;;;;;4992417;28;20041;-70
2023/03/13 06:53:21;;;;;;;6.32;4.55;;;6.50;99.90;;;;;;4994704;28;20042;-72
2023/03/13 06:55:47;;;;;;;7.00;4.30;;;6.40;99.90;;;;;;4991588;28;20618;-72
2023/03/13 06:58:14;;;;;;;6.57;4.38;;;6.30;99.90;;;;;;4996749;28;20106;-62
2023/03/13 07:00:42;;;;;;;10.25;6.18;;;6.30;99.90;;;;;;4996311;28;20075;-62
2023/03/13 07:03:08;;;;;;;21.98;12.88;;;6.30;99.90;;;;;;4996473;28;20038;-62
2023/03/13 07:05:33;;;;;;;12.75;6.50;;;6.30;99.90;;;;;;4994210;28;20030;-62
2023/03/13 07:07:59;;;;;;;6.82;5.00;;;6.30;99.90;;;;;;4998131;28;20076;-62
2023/03/13 07:10:24;;;;;;;6.70;5.07;;;6.30;99.90;;;;;;4997131;28;20046;-62
2023/03/13 07:12:50;;;;;;;7.38;5.00;;;6.30;99.90;;;;;;4991406;28;20038;-62
2023/03/13 07:15:16;;;;;;;9.63;5.25;;;6.40;99.90;;;;;;4997739;28;20038;-62
2023/03/13 07:17:41;;;;;;;9.32;4.57;;;6.50;99.90;;;;;;4996332;28;20033;-62
2023/03/13 07:20:09;;;;;;;6.95;4.60;;;6.60;99.90;;;;;;4999309;28;20499;-62
2023/03/13 07:22:36;;;;;;;8.57;5.07;;;6.70;99.90;;;;;;4995901;28;20716;-62
2023/03/13 07:25:02;;;;;;;6.35;4.70;;;6.70;99.90;;;;;;4991288;28;20070;-63
2023/03/13 07:27:27;;;;;;;8.48;5.78;;;6.70;99.90;;;;;;4986102;28;20072;-62
2023/03/13 07:29:53;;;;;;;7.35;5.22;;;6.90;99.90;;;;;;4998231;28;20069;-61
2023/03/13 07:32:19;;;;;;;8.43;5.07;;;7.00;99.90;;;;;;4978590;28;20609;-62
2023/03/13 07:34:44;;;;;;;6.57;4.90;;;7.10;99.60;;;;;;4993460;28;20048;-61
2023/03/13 07:37:14;;;;;;;6.65;4.55;;;7.20;99.90;;;;;;4993645;28;20611;-62
2023/03/13 07:39:41;;;;;;;7.00;4.80;;;7.40;99.50;;;;;;4994079;28;20180;-62
2023/03/13 07:42:10;;;;;;;8.45;5.05;;;7.50;99.00;;;;;;4994088;28;20121;-61
2023/03/13 07:44:36;;;;;;;8.65;4.68;;;7.70;98.90;;;;;;4998053;28;20136;-61
2023/03/13 07:47:01;;;;;;;8.38;4.72;;;7.80;98.50;;;;;;4992113;28;20493;-62
2023/03/13 07:49:27;;;;;;;9.57;4.68;;;7.90;98.00;;;;;;4995409;28;20108;-61
2023/03/13 07:51:53;;;;;;;8.07;5.45;;;8.10;97.90;;;;;;4994440;28;20100;-61
2023/03/13 07:54:18;;;;;;;7.55;4.80;;;8.30;97.40;;;;;;4996746;28;20044;-72
2023/03/13 07:56:44;;;;;;;6.38;4.70;;;8.40;96.50;;;;;;4994196;28;20037;-73
2023/03/13 07:59:10;;;;;;;7.93;4.60;;;8.60;96.40;;;;;;4989967;28;20044;-72
2023/03/13 08:01:35;;;;;;;7.75;4.90;;;8.50;95.10;;;;;;4986171;28;21462;-73
2023/03/13 08:04:01;;;;;;;8.27;5.18;;;8.40;95.80;;;;;;4996194;28;20050;-72
2023/03/13 08:06:29;;;;;;;7.28;5.35;;;8.60;95.80;;;;;;4989715;28;20192;-72
2023/03/13 08:08:58;;;;;;;6.90;4.63;;;8.70;95.40;;;;;;4992103;28;20172;-73
2023/03/13 08:11:25;;;;;;;7.78;4.60;;;8.80;95.10;;;;;;4990771;28;20042;-72
2023/03/13 08:13:53;;;;;;;5.78;4.60;;;8.90;95.20;;;;;;4977851;28;20613;-73
2023/03/13 08:16:29;;;;;;;5.68;4.88;;;9.00;95.50;;;;;;4991974;28;20041;-71
2023/03/13 08:18:57;;;;;;;15.68;6.03;;;9.30;94.00;;;;;;4987805;28;20108;-72
2023/03/13 08:21:27;;;;;;;6.50;4.93;;;9.50;93.70;;;;;;4990138;28;20045;-71
2023/03/13 08:23:55;;;;;;;10.32;5.18;;;9.80;93.50;;;;;;4992482;28;20132;-72
2023/03/13 08:26:22;;;;;;;7.97;5.68;;;10.00;93.00;;;;;;4995871;28;20038;-72
2023/03/13 08:28:53;;;;;;;4.60;4.03;;;10.20;92.90;;;;;;4996940;28;20406;-72
2023/03/13 08:31:24;;;;;;;7.18;4.78;;;10.40;91.10;;;;;;4998350;28;20187;-72
2023/03/13 08:33:50;;;;;;;6.37;4.87;;;10.40;91.10;;;;;;4976908;28;20041;-61
2023/03/13 08:36:21;;;;;;;6.13;4.40;;;10.50;90.70;;;;;;4995766;28;20271;-61
2023/03/13 08:38:48;;;;;;;5.50;4.35;;;10.60;89.90;;;;;;5000147;28;20125;-61
2023/03/13 08:41:16;;;;;;;6.78;5.00;;;10.60;90.40;;;;;;5000328;28;20049;-62
2023/03/13 08:43:42;;;;;;;5.93;4.78;;;10.70;89.30;;;;;;4995571;28;20057;-62
2023/03/13 08:46:07;;;;;;;5.63;4.43;;;10.70;89.90;;;;;;4992163;28;20049;-61
2023/03/13 08:48:33;;;;;;;7.65;4.75;;;10.90;88.10;;;;;;5000377;28;20034;-62
2023/03/13 08:51:19;;;;;;;6.07;4.43;;;10.90;87.90;;;;;;5000715;28;20463;-61
2023/03/13 08:53:44;;;;;;;5.55;4.13;;;11.00;89.30;;;;;;4996740;28;20144;-61
2023/03/13 08:56:12;;;;;;;8.35;4.13;;;11.00;87.40;;;;;;4994386;28;20391;-62
2023/03/13 08:58:39;;;;;;;6.35;4.22;;;11.10;87.00;;;;;;4999148;28;20057;-62
2023/03/13 09:01:07;;;;;;;9.48;4.45;;;11.30;85.70;;;;;;4987624;28;20664;-62
2023/03/13 09:03:33;;;;;;;5.85;4.35;;;11.50;84.30;;;;;;4999064;28;20160;-61
2023/03/13 09:05:59;;;;;;;6.88;4.68;;;11.50;84.10;;;;;;4998072;28;20042;-61
2023/03/13 09:08:26;;;;;;;7.35;4.30;;;11.60;83.40;;;;;;4990447;28;20037;-73
2023/03/13 09:11:00;;;;;;;6.18;3.63;;;11.60;81.50;;;;;;4991763;28;20133;-73
2023/03/13 09:13:27;;;;;;;5.72;4.30;;;11.50;80.60;;;;;;4993987;28;20040;-72
2023/03/13 09:16:03;;;;;;;7.28;4.75;;;11.50;80.80;;;;;;4998639;28;21047;-72
2023/03/13 09:18:30;;;;;;;7.80;3.75;;;11.50;80.30;;;;;;4985430;28;20046;-72
2023/03/13 09:20:55;;;;;;;9.95;8.95;;;11.60;81.30;;;;;;4989052;28;20050;-72
2023/03/13 09:23:22;;;;;;;6.63;4.53;;;11.70;80.50;;;;;;4994979;28;20100;-73
2023/03/13 09:25:51;;;;;;;9.07;4.40;;;11.80;81.20;;;;;;4996250;28;20092;-73
2023/03/13 09:28:16;;;;;;;7.07;4.10;;;11.90;78.50;;;;;;4996651;28;20612;-72
2023/03/13 09:30:42;;;;;;;6.18;3.60;;;12.00;77.70;;;;;;4997543;28;20038;-71
2023/03/13 09:33:08;;;;;;;6.07;3.95;;;12.10;76.20;;;;;;4969062;28;20042;-72
2023/03/13 09:35:33;;;;;;;12.38;4.53;;;12.00;77.10;;;;;;4999672;28;20471;-72
2023/03/13 09:37:59;;;;;;;3.72;3.25;;;12.10;77.20;;;;;;5000375;28;20712;-71
2023/03/13 09:40:27;;;;;;;8.30;4.25;;;12.20;78.30;;;;;;4995054;28;20450;-72
2023/03/13 09:42:59;;;;;;;5.13;4.03;;;12.30;75.50;;;;;;4995508;28;20415;-71
2023/03/13 09:45:33;;;;;;;5.95;3.85;;;12.20;73.40;;;;;;4994966;28;20049;-72
2023/03/13 09:48:01;;;;;;;5.82;3.97;;;12.10;74.80;;;;;;4994324;28;20130;-73
2023/03/13 09:50:36;;;;;;;5.43;4.25;;;12.00;74.40;;;;;;4989103;28;20104;-73
2023/03/13 09:53:13;;;;;;;7.22;4.38;;;12.00;74.80;;;;;;4993036;28;20096;-72
2023/03/13 09:55:41;;;;;;;6.95;4.18;;;12.00;74.50;;;;;;4994053;28;20104;-72
2023/03/13 09:58:20;;;;;;;7.05;4.03;;;12.10;74.80;;;;;;4997267;28;20064;-72
2023/03/13 10:00:57;;;;;;;6.00;4.20;;;12.40;73.80;;;;;;4990405;28;20480;-72
2023/03/13 10:03:37;;;;;;;8.32;4.55;;;12.60;74.40;;;;;;4995516;28;20035;-72
2023/03/13 10:06:24;;;;;;;7.43;4.20;;;12.70;71.20;;;;;;4994070;28;20049;-72
2023/03/13 10:08:51;;;;;;;10.18;4.40;;;12.50;71.30;;;;;;4996739;28;20057;-73
2023/03/13 10:11:28;;;;;;;6.25;4.60;;;12.40;71.50;;;;;;4990401;28;20418;-72
2023/03/13 10:14:26;;;;;;;7.22;4.30;;;12.40;70.90;;;;;;5000770;28;20030;-72
2023/03/13 10:17:08;;;;;;;5.57;4.18;;;12.50;71.60;;;;;;4991285;28;20037;-72
2023/03/13 10:19:38;;;;;;;6.18;3.70;;;12.50;71.80;;;;;;4995366;28;20038;-73
2023/03/13 10:22:24;;;;;;;5.53;3.97;;;12.60;70.00;;;;;;4996713;28;20042;-74
2023/03/13 10:24:59;;;;;;;4.95;3.80;;;12.60;70.60;;;;;;4997675;28;20049;-73
2023/03/13 10:27:25;;;;;;;6.53;3.92;;;12.70;68.30;;;;;;4977825;28;20096;-73
2023/03/13 10:29:50;;;;;;;6.65;3.97;;;12.80;68.90;;;;;;4999480;28;20026;-72
2023/03/13 10:32:17;;;;;;;5.15;3.50;;;13.00;69.90;;;;;;4993295;28;21135;-73
2023/03/13 10:35:00;;;;;;;12.70;3.92;;;13.10;68.20;;;;;;4999582;28;20053;-73
2023/03/13 10:37:31;;;;;;;6.45;3.95;;;13.10;67.20;;;;;;5002047;28;20145;-73
2023/03/13 10:40:21;;;;;;;6.35;4.20;;;13.00;67.60;;;;;;4999316;28;20108;-73
2023/03/13 10:42:49;;;;;;;6.75;4.05;;;13.10;67.80;;;;;;4998708;28;20042;-72
2023/03/13 10:45:21;;;;;;;4.95;3.75;;;13.10;66.90;;;;;;5000004;28;20069;-72
2023/03/13 10:48:00;;;;;;;;;;;13.20;65.90;;;;;;4997090;28;20038;-73
2023/03/13 10:50:30;;;;;;;4.43;3.47;;;13.20;66.00;;;;;;4991901;28;19989;-73
2023/03/13 10:52:57;;;;;;;6.10;3.92;;;13.10;65.90;;;;;;4997970;28;20089;-72
2023/03/13 10:55:24;;;;;;;5.50;4.13;;;13.20;66.90;;;;;;4999378;28;20033;-73
2023/03/13 10:58:04;;;;;;;4.00;3.50;;;13.30;66.70;;;;;;4998913;28;20050;-73
2023/03/13 11:00:34;;;;;;;5.35;3.50;;;13.40;64.40;;;;;;5000682;28;20045;-73
2023/03/13 11:03:04;;;;;;;5.47;3.80;;;13.30;65.10;;;;;;5000682;28;20045;-73
2023/03/13 11:05:38;;;;;;;5.65;3.28;;;13.30;66.60;;;;;;4998043;28;20040;-61
2023/03/13 11:08:34;;;;;;;6.55;4.07;;;13.50;64.50;;;;;;4998308;28;20554;-73
2023/03/13 11:11:03;;;;;;;6.75;4.18;;;13.40;64.50;;;;;;4998121;28;20100;-73
2023/03/13 11:13:33;;;;;;;9.20;4.57;;;13.40;64.60;;;;;;4996011;28;20065;-72
2023/03/13 11:16:10;;;;;;;5.93;5.22;;;13.50;65.90;;;;;;4996124;28;20069;-73
2023/03/13 11:18:57;;;;;;;9.90;6.35;;;13.80;66.20;;;;;;4991001;28;20046;-72
2023/03/13 11:21:38;;;;;;;16.67;8.68;;;14.00;64.50;;;;;;4995095;28;20038;-72
2023/03/13 11:24:23;;;;;;;6.07;4.53;;;13.90;64.20;;;;;;5000327;28;20046;-72
2023/03/13 11:27:26;;;;;;;5.78;4.30;;;14.00;62.70;;;;;;4998525;28;20057;-61
2023/03/13 11:30:21;;;;;;;8.45;5.20;;;14.10;64.70;;;;;;4999191;28;20109;-61
2023/03/13 11:32:56;;;;;;;6.07;3.90;;;14.40;62.70;;;;;;4995196;28;20049;-61
2023/03/13 11:35:40;;;;;;;4.63;4.13;;;14.20;61.60;;;;;;4997259;28;20022;-62
2023/03/13 11:38:27;;;;;;;5.43;4.00;;;14.10;63.40;;;;;;4998617;28;20049;-61
2023/03/13 11:41:22;;;;;;;13.55;4.45;;;14.40;64.40;;;;;;4997223;28;20113;-62
2023/03/13 11:44:22;;;;;;;6.05;3.55;;;14.60;63.40;;;;;;4993714;28;20046;-61
2023/03/13 11:47:27;;;;;;;4.18;3.78;;;15.00;63.00;;;;;;4999986;28;20510;-61
2023/03/13 11:49:55;;;;;;;8.80;3.80;;;15.10;61.10;;;;;;4996791;28;20044;-61
2023/03/13 11:52:30;;;;;;;7.85;4.57;;;15.10;61.20;;;;;;4995905;28;20080;-61
2023/03/13 11:55:17;;;;;;;6.05;4.13;;;15.20;62.10;;;;;;4999743;28;20065;-61
2023/03/13 11:58:30;;;;;;;7.35;4.50;;;15.20;61.20;;;;;;4999295;28;20462;-61
2023/03/13 12:01:06;;;;;;;6.78;4.07;;;15.10;61.60;;;;;;4997535;28;20545;-61
2023/03/13 12:04:14;;;;;;;6.72;4.05;;;15.10;62.90;;;;;;5002135;28;20127;-61
2023/03/13 12:06:48;;;;;;;5.75;4.00;;;15.20;59.50;;;;;;5002205;28;20040;-61
2023/03/13 12:09:26;;;;;;;6.70;3.47;;;15.20;60.80;;;;;;5002448;28;20081;-61
2023/03/13 12:12:09;;;;;;;7.82;3.92;;;15.30;60.10;;;;;;5000851;28;20096;-61
2023/03/13 12:15:05;;;;;;;8.45;4.07;;;15.30;59.30;;;;;;5002301;28;20410;-61
2023/03/13 12:17:30;;;;;;;5.75;4.10;;;15.20;60.40;;;;;;5000929;28;20041;-61
2023/03/13 12:20:06;;;;;;;6.80;4.03;;;15.30;59.80;;;;;;5002969;28;20091;-61
2023/03/13 12:22:40;;;;;;;6.63;3.78;;;15.30;59.50;;;;;;5001757;28;20161;-73
2023/03/13 12:25:17;;;;;;;4.80;4.05;;;15.50;59.90;;;;;;5004057;28;20046;-73
2023/03/13 12:27:50;;;;;;;5.05;4.05;;;15.60;59.30;;;;;;5004943;28;20075;-72
2023/03/13 12:30:38;;;;;;;5.18;3.97;;;15.70;60.20;;;;;;5003547;28;20429;-73
2023/03/13 12:33:28;;;;;;;17.23;13.13;;;15.80;58.90;;;;;;5002037;28;20033;-74
2023/03/13 12:36:19;;;;;;;11.20;5.18;;;15.80;57.90;;;;;;5001842;28;20109;-73
2023/03/13 12:39:01;;;;;;;9.18;5.32;;;15.60;58.90;;;;;;5001401;28;20037;-73
2023/03/13 12:41:40;;;;;;;8.80;4.47;;;15.60;58.20;;;;;;5001822;28;20219;-73
2023/03/13 12:44:10;;;;;;;10.32;4.55;;;15.40;58.40;;;;;;5001421;28;20154;-73
2023/03/13 12:46:49;;;;;;;4.53;3.75;;;15.40;59.00;;;;;;5001581;28;20054;-73
2023/03/13 12:49:14;;;;;;;7.68;4.82;;;15.50;58.50;;;;;;4996536;28;20557;-73
2023/03/13 12:52:13;;;;;;;5.10;4.15;;;15.60;58.60;;;;;;5001952;28;20030;-73
2023/03/13 12:55:30;;;;;;;5.90;3.45;;;15.70;59.10;;;;;;4986245;28;20073;-72
2023/03/13 12:58:13;;;;;;;4.10;3.42;;;15.80;57.00;;;;;;4967646;28;20075;-72
2023/03/13 13:00:42;;;;;;;5.93;3.28;;;15.60;58.10;;;;;;5002158;28;20116;-62
2023/03/13 13:03:35;;;;;;;5.97;3.80;;;15.40;58.00;;;;;;4993592;28;20049;-62
2023/03/13 13:06:03;;;;;;;;;;;15.40;58.00;;;;;;4995422;28;20197;-61
2023/03/13 13:08:34;;;;;;;7.47;4.40;;;15.30;58.70;;;;;;4996681;28;19921;-62
2023/03/13 13:11:34;;;;;;;6.50;3.93;;;15.40;59.10;;;;;;4999597;28;20065;-61